Princeton, Missouri
Current Conditions -  °F | °C
As of 5:53 AM on Saturday 20 Dec 2014 (Local Time) from KLWD Reporting Station
Haze Haze  
Wind Chill: -3°   Ceiling: 600
Heat Index: -1°   Visibility: 3mi
Dew Point: -1°   Wind: 5mph
Humidity: 96%   Direction: 190°S
Pressure: 30.16"   Gusts: NA
Location:  40.4°N, 93.58°W
Report Text: KLWD 201153Z AUTO 19004KT 3SM BR OVC006 M01/M01 A3016 RMK AO2 SLP225 60000 T10061011 11006 21011 58004
Loading
Personal Weather Stations






























Interactive Weather Map New forecast layout! Learn more

10-Day Weather Forecast

Advertisements
Track Severe Weather on mobile